createdAt,value
2018-06-21T00:02:11.669Z,23.70
2018-06-21T00:04:38.916Z,23.70
2018-06-21T00:07:06.200Z,23.70
2018-06-21T00:09:33.473Z,23.70
2018-06-21T00:14:28.056Z,23.80
2018-06-21T00:16:55.598Z,23.70
2018-06-21T00:19:22.864Z,23.70
2018-06-21T00:21:50.140Z,23.60
2018-06-21T00:24:17.411Z,23.60
2018-06-21T00:26:44.657Z,23.60
2018-06-21T00:29:12.317Z,23.60
2018-06-21T00:31:39.576Z,23.50
2018-06-21T00:34:06.829Z,23.50
2018-06-21T00:36:34.093Z,23.50
2018-06-21T00:39:01.364Z,23.50
2018-06-21T00:41:28.637Z,23.50
2018-06-21T00:46:23.251Z,23.50
2018-06-21T00:48:50.492Z,23.50
2018-06-21T00:51:18.139Z,23.50
2018-06-21T00:53:45.403Z,23.40
2018-06-21T00:56:18.869Z,23.40
2018-06-21T00:58:46.959Z,23.40
2018-06-21T01:01:15.465Z,23.40
2018-06-21T01:03:42.777Z,23.30
2018-06-21T01:06:10.104Z,23.30
2018-06-21T01:08:37.645Z,23.30
2018-06-21T01:11:05.100Z,23.40
2018-06-21T01:13:32.552Z,23.40
2018-06-21T01:16:00.241Z,23.50
2018-06-21T01:18:27.561Z,23.60
2018-06-21T01:20:54.847Z,23.60
2018-06-21T01:23:22.294Z,23.50
2018-06-21T01:25:49.645Z,23.50
2018-06-21T01:28:16.892Z,23.50
2018-06-21T01:30:44.198Z,23.50
2018-06-21T01:33:11.611Z,23.50
2018-06-21T01:35:38.881Z,23.50
2018-06-21T01:40:33.392Z,23.50
2018-06-21T01:43:00.663Z,23.50
2018-06-21T01:45:28.100Z,23.50
2018-06-21T01:47:55.403Z,23.50
2018-06-21T01:50:24.707Z,23.60
2018-06-21T01:52:51.999Z,23.50
2018-06-21T01:55:19.639Z,23.50
2018-06-21T01:57:46.919Z,23.50
2018-06-21T02:00:14.209Z,23.60
2018-06-21T02:05:08.902Z,23.50
2018-06-21T02:07:36.824Z,23.50
2018-06-21T02:10:04.812Z,23.60
2018-06-21T02:12:32.084Z,23.60
2018-06-21T02:14:59.347Z,23.50
2018-06-21T02:17:26.624Z,23.60
2018-06-21T02:19:53.863Z,23.60
2018-06-21T02:22:21.119Z,23.60
2018-06-21T02:24:48.777Z,23.60
2018-06-21T02:27:16.051Z,23.60
2018-06-21T02:29:43.280Z,23.60
2018-06-21T02:32:11.152Z,23.70
2018-06-21T02:34:38.406Z,23.60
2018-06-21T02:37:05.749Z,23.60
2018-06-21T02:39:37.243Z,23.60
2018-06-21T02:42:05.108Z,23.60
2018-06-21T02:44:32.367Z,23.60
2018-06-21T02:46:59.623Z,23.60
2018-06-21T02:49:26.867Z,23.60
2018-06-21T02:51:54.107Z,23.60
2018-06-21T02:54:21.357Z,23.60
2018-06-21T02:56:48.604Z,23.50
2018-06-21T03:01:44.005Z,23.50
2018-06-21T03:04:11.268Z,23.50
2018-06-21T03:09:06.744Z,23.60
2018-06-21T03:11:34.047Z,23.60
2018-06-21T03:14:01.313Z,23.70
2018-06-21T03:16:28.555Z,23.60
2018-06-21T03:18:56.323Z,23.60
2018-06-21T03:21:23.580Z,23.60
2018-06-21T03:23:50.829Z,23.60
2018-06-21T03:26:18.196Z,23.60
2018-06-21T03:28:45.467Z,23.50
2018-06-21T03:31:12.720Z,23.50
2018-06-21T03:33:40.385Z,23.60
2018-06-21T03:36:07.623Z,23.60
2018-06-21T03:38:34.881Z,23.50
2018-06-21T03:41:02.392Z,23.60
2018-06-21T03:43:29.659Z,23.60
2018-06-21T03:45:56.924Z,23.50
2018-06-21T03:50:51.891Z,23.50
2018-06-21T03:53:19.166Z,23.50
2018-06-21T03:55:48.471Z,23.50
2018-06-21T03:58:15.791Z,23.50
2018-06-21T04:00:43.055Z,23.40
2018-06-21T04:03:10.995Z,23.50
2018-06-21T04:05:38.239Z,23.40
2018-06-21T04:08:05.471Z,23.40
2018-06-21T04:10:32.735Z,23.40
2018-06-21T04:12:59.976Z,23.40
2018-06-21T04:15:27.229Z,23.40
2018-06-21T04:17:56.855Z,23.30
2018-06-21T04:20:24.124Z,23.30
2018-06-21T04:22:51.375Z,23.30
2018-06-21T04:25:18.636Z,23.30
2018-06-21T04:27:45.888Z,23.30
2018-06-21T04:30:13.128Z,23.20
2018-06-21T04:32:40.715Z,23.30
2018-06-21T04:35:07.962Z,23.30
2018-06-21T04:37:35.204Z,23.30
2018-06-21T04:40:04.844Z,23.20
2018-06-21T04:42:32.087Z,23.20
2018-06-21T04:44:59.322Z,23.20
2018-06-21T04:47:26.915Z,23.20
2018-06-21T04:49:54.183Z,23.10
2018-06-21T04:52:21.440Z,23.10
2018-06-21T04:54:48.737Z,23.10
2018-06-21T04:59:43.371Z,23.10
2018-06-21T05:02:10.639Z,23.00
2018-06-21T05:07:05.502Z,23.10
2018-06-21T05:09:32.760Z,23.10
2018-06-21T05:12:00.018Z,23.10
2018-06-21T05:14:27.300Z,23.10
2018-06-21T05:16:54.566Z,23.10
2018-06-21T05:21:49.453Z,23.10
2018-06-21T05:24:16.696Z,23.00
2018-06-21T05:26:43.919Z,23.00
2018-06-21T05:31:38.361Z,23.00
2018-06-21T05:34:05.546Z,23.00
2018-06-21T05:36:33.032Z,23.00
2018-06-21T05:39:00.223Z,22.90
2018-06-21T05:41:27.421Z,22.90
2018-06-21T05:43:54.622Z,22.90
2018-06-21T05:48:49.050Z,22.90
2018-06-21T05:51:16.591Z,22.80
2018-06-21T05:53:43.788Z,22.80
2018-06-21T05:56:10.938Z,22.80
2018-06-21T05:58:38.967Z,22.80
2018-06-21T06:01:06.296Z,22.80
2018-06-21T06:03:33.457Z,22.80
2018-06-21T06:06:00.921Z,22.80
2018-06-21T06:08:28.169Z,22.80
2018-06-21T06:13:22.717Z,22.80
2018-06-21T06:15:49.873Z,22.80
2018-06-21T06:18:17.005Z,22.70
2018-06-21T06:20:44.161Z,22.70
2018-06-21T06:23:11.518Z,22.70
2018-06-21T06:25:38.722Z,22.70
2018-06-21T06:30:37.485Z,22.70
2018-06-21T06:33:04.645Z,22.70
2018-06-21T06:35:34.126Z,22.70
2018-06-21T06:38:01.305Z,22.70
2018-06-21T06:40:28.610Z,22.60
2018-06-21T06:42:56.366Z,22.60
2018-06-21T06:45:23.570Z,22.60
2018-06-21T06:47:50.754Z,22.50
2018-06-21T06:50:18.189Z,22.50
2018-06-21T06:52:45.369Z,22.40
2018-06-21T06:55:12.550Z,22.40
2018-06-21T06:57:43.900Z,22.40
2018-06-21T07:00:11.461Z,22.40
2018-06-21T07:02:38.650Z,22.40
2018-06-21T07:07:33.829Z,22.30
2018-06-21T07:10:00.950Z,22.30
2018-06-21T07:12:28.130Z,22.30
2018-06-21T07:14:59.311Z,22.30
2018-06-21T07:17:26.485Z,22.30
2018-06-21T07:22:24.984Z,22.20
2018-06-21T07:27:19.375Z,22.20
2018-06-21T07:29:48.911Z,22.20
2018-06-21T07:32:16.053Z,22.20
2018-06-21T07:34:43.209Z,22.20
2018-06-21T07:37:16.397Z,22.20
2018-06-21T07:39:43.547Z,22.20
2018-06-21T07:42:10.734Z,22.20
2018-06-21T07:44:44.005Z,22.20
2018-06-21T07:49:40.461Z,22.30
2018-06-21T07:52:07.636Z,22.30
2018-06-21T07:54:34.813Z,22.40
2018-06-21T07:57:06.022Z,22.40
2018-06-21T07:59:33.189Z,22.40
2018-06-21T08:02:00.357Z,22.50
2018-06-21T08:06:55.153Z,22.50
2018-06-21T08:09:22.309Z,22.60
2018-06-21T08:11:49.477Z,22.70
2018-06-21T08:14:16.749Z,22.70
2018-06-21T08:19:15.757Z,22.70
2018-06-21T08:21:43.070Z,22.70
2018-06-21T08:24:10.229Z,22.70
2018-06-21T08:26:37.712Z,22.70
2018-06-21T08:29:04.889Z,22.70
2018-06-21T08:31:32.058Z,22.70
2018-06-21T08:36:26.445Z,22.80
2018-06-21T08:38:53.606Z,22.80
2018-06-21T08:41:22.806Z,22.80
2018-06-21T08:43:49.937Z,22.80
2018-06-21T08:46:17.125Z,22.90
2018-06-21T08:48:44.661Z,22.80
2018-06-21T08:51:11.841Z,22.90
2018-06-21T08:53:38.987Z,22.90
2018-06-21T08:56:12.181Z,22.90
2018-06-21T08:58:39.353Z,23.00
2018-06-21T09:01:12.557Z,23.00
2018-06-21T09:03:39.717Z,23.00
2018-06-21T09:06:06.909Z,23.00
2018-06-21T09:08:34.115Z,23.00
2018-06-21T09:11:01.291Z,23.00
2018-06-21T09:15:57.513Z,23.00
2018-06-21T09:18:24.686Z,23.00
2018-06-21T09:20:51.854Z,23.00
2018-06-21T09:23:19.390Z,23.00
2018-06-21T09:25:46.573Z,23.00
2018-06-21T09:28:14.561Z,22.90
2018-06-21T09:30:41.729Z,22.90
2018-06-21T09:33:09.078Z,22.90
2018-06-21T09:35:36.206Z,22.90
2018-06-21T09:38:09.482Z,22.90
2018-06-21T09:40:42.473Z,23.00
2018-06-21T09:43:15.493Z,23.20
2018-06-21T09:45:48.325Z,23.30
2018-06-21T09:48:21.349Z,23.40
2018-06-21T09:50:48.521Z,23.40
2018-06-21T09:55:42.906Z,23.40
2018-06-21T09:58:10.283Z,23.40
2018-06-21T10:00:43.284Z,23.40
2018-06-21T10:03:10.821Z,23.40
2018-06-21T10:05:38.018Z,23.50
2018-06-21T10:08:05.209Z,23.50
2018-06-21T10:10:32.697Z,23.50
2018-06-21T10:12:59.866Z,23.50
2018-06-21T10:17:57.351Z,23.50
2018-06-21T10:20:24.572Z,23.50
2018-06-21T10:22:51.692Z,23.40
2018-06-21T10:25:19.005Z,23.40
2018-06-21T10:27:46.213Z,23.50
2018-06-21T10:30:13.381Z,23.50
2018-06-21T10:32:40.552Z,23.50
2018-06-21T10:35:07.748Z,23.60
2018-06-21T10:37:35.193Z,23.50
2018-06-21T10:40:02.398Z,23.50
2018-06-21T10:42:29.582Z,23.60
2018-06-21T10:44:56.725Z,23.60
2018-06-21T10:47:23.898Z,23.60
2018-06-21T10:49:51.487Z,23.50
2018-06-21T10:52:18.637Z,23.50
2018-06-21T10:54:45.830Z,23.40
2018-06-21T10:57:17.045Z,23.30
2018-06-21T10:59:44.225Z,23.30
2018-06-21T11:07:05.890Z,23.10
2018-06-21T11:12:00.598Z,23.10
2018-06-21T11:14:27.914Z,23.10
2018-06-21T11:16:55.164Z,23.10
2018-06-21T11:19:24.613Z,23.10
2018-06-21T11:21:52.601Z,23.10
2018-06-21T11:24:19.778Z,23.10
2018-06-21T11:29:14.157Z,23.10
2018-06-21T11:31:41.308Z,23.10
2018-06-21T11:34:10.513Z,23.10
2018-06-21T11:36:37.776Z,23.00
2018-06-21T11:39:06.718Z,23.00
2018-06-21T11:41:34.163Z,22.90
2018-06-21T11:46:28.529Z,23.00
2018-06-21T11:48:55.697Z,23.00
2018-06-21T11:51:22.853Z,23.00
2018-06-21T11:56:17.271Z,23.00
2018-06-21T11:58:44.453Z,23.10
2018-06-21T12:01:12.097Z,23.00
2018-06-21T12:03:39.246Z,23.10
2018-06-21T12:06:06.448Z,23.10
2018-06-21T12:08:33.637Z,23.10
2018-06-21T12:11:00.827Z,23.10
2018-06-21T12:13:28.053Z,23.10
2018-06-21T12:15:55.213Z,23.00
2018-06-21T12:18:22.385Z,23.00
2018-06-21T12:20:49.558Z,23.00
2018-06-21T12:25:48.045Z,23.00
2018-06-21T12:28:15.218Z,23.00
2018-06-21T12:30:42.394Z,23.10
2018-06-21T12:33:09.567Z,23.10
2018-06-21T12:35:37.177Z,23.10
2018-06-21T12:38:04.621Z,23.10
2018-06-21T12:40:31.746Z,23.10
2018-06-21T12:42:58.899Z,23.10
2018-06-21T12:45:26.119Z,23.10
2018-06-21T12:47:53.315Z,23.00
2018-06-21T12:50:20.510Z,23.00
2018-06-21T12:52:47.880Z,23.10
2018-06-21T12:55:15.054Z,23.00
2018-06-21T12:57:42.215Z,23.10
2018-06-21T13:00:09.402Z,23.10
2018-06-21T13:02:36.578Z,23.20
2018-06-21T13:05:03.753Z,23.30
2018-06-21T13:07:30.918Z,23.30
2018-06-21T13:10:10.049Z,23.30
2018-06-21T13:12:50.165Z,23.20
2018-06-21T13:15:17.788Z,23.30
2018-06-21T13:17:44.977Z,23.20
2018-06-21T13:20:12.177Z,23.20
2018-06-21T13:22:39.345Z,23.10
2018-06-21T13:25:06.565Z,23.10
2018-06-21T13:27:33.769Z,23.10
2018-06-21T13:32:28.494Z,23.20
2018-06-21T13:37:23.293Z,23.10
2018-06-21T13:39:50.457Z,23.10
2018-06-21T13:42:17.626Z,23.00
2018-06-21T13:47:12.238Z,23.00
2018-06-21T13:52:06.532Z,22.90
2018-06-21T13:54:33.870Z,22.90
2018-06-21T13:57:01.045Z,22.90
2018-06-21T13:59:28.609Z,22.90
2018-06-21T14:01:55.789Z,22.90
2018-06-21T14:06:50.436Z,23.00
2018-06-21T14:09:17.682Z,23.00
2018-06-21T14:11:44.838Z,23.10
2018-06-21T14:14:12.079Z,23.10
2018-06-21T14:19:07.001Z,23.00
2018-06-21T14:21:34.517Z,23.00
2018-06-21T14:24:02.016Z,22.90
2018-06-21T14:26:29.189Z,22.90
2018-06-21T14:31:24.254Z,23.00
2018-06-21T14:33:51.823Z,23.00
2018-06-21T14:36:19.089Z,23.00
2018-06-21T14:38:46.250Z,22.90
2018-06-21T14:41:15.434Z,22.90
2018-06-21T14:43:42.901Z,22.80
2018-06-21T14:46:10.461Z,22.80
2018-06-21T14:48:37.694Z,22.80
2018-06-21T14:53:32.095Z,22.70
2018-06-21T14:58:26.487Z,22.60
2018-06-21T15:00:53.665Z,22.60
2018-06-21T15:03:20.974Z,22.60
2018-06-21T15:05:48.154Z,22.60
2018-06-21T15:08:15.357Z,22.50
2018-06-21T15:10:42.542Z,22.60
2018-06-21T15:13:09.713Z,22.50
2018-06-21T15:15:37.335Z,22.50
2018-06-21T15:18:04.611Z,22.50
2018-06-21T15:20:31.814Z,22.50
2018-06-21T15:25:26.266Z,22.40
2018-06-21T15:27:53.426Z,22.40
2018-06-21T15:30:24.636Z,22.40
2018-06-21T15:35:19.314Z,22.40
2018-06-21T15:37:46.493Z,22.40
2018-06-21T15:40:13.659Z,22.40
2018-06-21T15:42:40.837Z,22.40
2018-06-21T15:45:08.000Z,22.30
2018-06-21T15:50:02.649Z,22.30
2018-06-21T15:52:30.012Z,22.30
2018-06-21T15:54:57.214Z,22.30
2018-06-21T15:57:24.698Z,22.30
2018-06-21T15:59:51.841Z,22.30
2018-06-21T16:02:19.033Z,22.30
2018-06-21T16:04:46.637Z,22.30
2018-06-21T16:07:13.824Z,22.30
2018-06-21T16:09:41.014Z,22.30
2018-06-21T16:12:08.209Z,22.20
2018-06-21T16:14:35.369Z,22.20
2018-06-21T16:17:02.548Z,22.20
2018-06-21T16:21:56.933Z,22.10
2018-06-21T16:24:24.254Z,22.10
2018-06-21T16:26:51.433Z,22.10
2018-06-21T16:29:18.601Z,22.10
2018-06-21T16:31:45.811Z,22.10
2018-06-21T16:34:12.973Z,22.10
2018-06-21T16:36:40.155Z,22.10
2018-06-21T16:39:08.433Z,22.10
2018-06-21T16:41:35.594Z,22.10
2018-06-21T16:44:02.793Z,22.10
2018-06-21T16:48:57.475Z,22.10
2018-06-21T16:51:24.662Z,22.10
2018-06-21T16:53:58.141Z,22.10
2018-06-21T16:56:25.342Z,22.10
2018-06-21T16:58:52.509Z,22.10
2018-06-21T17:01:20.221Z,22.10
2018-06-21T17:03:47.479Z,22.10
2018-06-21T17:06:14.773Z,22.10
2018-06-21T17:08:42.201Z,22.10
2018-06-21T17:11:09.435Z,22.00
2018-06-21T17:13:36.701Z,22.10
2018-06-21T17:16:04.283Z,22.00
2018-06-21T17:18:31.610Z,22.00
2018-06-21T17:20:58.772Z,22.00
2018-06-21T17:23:25.939Z,22.00
2018-06-21T17:25:53.115Z,22.00
2018-06-21T17:28:20.289Z,22.00
2018-06-21T17:30:47.826Z,21.90
2018-06-21T17:33:15.006Z,21.90
2018-06-21T17:35:42.161Z,22.00
2018-06-21T17:38:09.722Z,22.00
2018-06-21T17:40:36.874Z,22.00
2018-06-21T17:43:04.124Z,22.00
2018-06-21T17:45:31.317Z,22.00
2018-06-21T17:47:58.486Z,21.90
2018-06-21T17:50:25.662Z,21.90
2018-06-21T17:52:52.847Z,21.90
2018-06-21T17:55:19.999Z,21.90
2018-06-21T17:57:47.484Z,22.00
2018-06-21T18:00:14.737Z,22.00
2018-06-21T18:02:41.899Z,22.00
2018-06-21T18:05:09.445Z,22.00
2018-06-21T18:07:36.619Z,22.00
2018-06-21T18:12:31.009Z,21.90
2018-06-21T18:14:58.161Z,21.90
2018-06-21T18:17:25.321Z,21.90
2018-06-21T18:19:52.494Z,21.80
2018-06-21T18:24:46.931Z,21.70
2018-06-21T18:27:14.093Z,21.70
2018-06-21T18:29:41.261Z,21.70
2018-06-21T18:32:08.460Z,21.70
2018-06-21T18:34:37.659Z,21.70
2018-06-21T18:37:04.817Z,21.70
2018-06-21T18:39:32.287Z,21.70
2018-06-21T18:41:59.453Z,21.60
2018-06-21T18:44:26.627Z,21.60
2018-06-21T18:46:53.821Z,21.60
2018-06-21T18:49:25.304Z,21.50
2018-06-21T18:51:52.470Z,21.50
2018-06-21T18:54:19.629Z,21.50
2018-06-21T18:59:14.035Z,21.50
2018-06-21T19:01:41.181Z,21.50
2018-06-21T19:04:08.406Z,21.50
2018-06-21T19:06:41.201Z,21.50
2018-06-21T19:09:20.345Z,21.50
2018-06-21T19:14:20.418Z,21.50
2018-06-21T19:21:42.106Z,21.50
2018-06-21T19:24:09.278Z,21.50
2018-06-21T19:26:36.512Z,21.50
2018-06-21T19:31:30.965Z,21.40
2018-06-21T19:33:58.165Z,21.40
2018-06-21T19:36:25.357Z,21.50
2018-06-21T19:38:52.548Z,21.40
2018-06-21T19:41:19.746Z,21.40
2018-06-21T19:43:46.962Z,21.40
2018-06-21T19:46:14.146Z,21.40
2018-06-21T19:51:08.960Z,21.30
2018-06-21T19:53:36.147Z,21.30
2018-06-21T19:56:03.361Z,21.30
2018-06-21T19:58:30.554Z,21.30
2018-06-21T20:00:57.734Z,21.30
2018-06-21T20:03:24.948Z,21.20
2018-06-21T20:08:23.632Z,21.20
2018-06-21T20:10:56.688Z,21.20
2018-06-21T20:13:23.957Z,21.20
2018-06-21T20:15:52.502Z,21.20
2018-06-21T20:20:52.158Z,21.20
2018-06-21T20:23:19.972Z,21.20
2018-06-21T20:25:47.170Z,21.30
2018-06-21T20:28:14.393Z,21.30
2018-06-21T20:30:41.573Z,21.20
2018-06-21T20:33:09.148Z,21.20
2018-06-21T20:35:36.551Z,21.30
2018-06-21T20:38:03.837Z,21.30
2018-06-21T20:40:31.416Z,21.30
2018-06-21T20:42:58.631Z,21.30
2018-06-21T20:45:25.850Z,21.30
2018-06-21T20:47:53.063Z,21.30
2018-06-21T20:50:20.590Z,21.30
2018-06-21T20:52:47.750Z,21.30
2018-06-21T20:55:14.947Z,21.30
2018-06-21T20:57:42.161Z,21.30
2018-06-21T21:00:09.378Z,21.30
2018-06-21T21:07:41.349Z,21.30
2018-06-21T21:10:09.833Z,21.30
2018-06-21T21:12:37.281Z,21.30
2018-06-21T21:15:05.879Z,21.30
2018-06-21T21:17:33.244Z,21.30
2018-06-21T21:20:00.593Z,21.30
2018-06-21T21:22:27.738Z,21.30
2018-06-21T21:24:54.941Z,21.30
2018-06-21T21:27:22.166Z,21.30
2018-06-21T21:29:49.352Z,21.30
2018-06-21T21:32:16.788Z,21.30
2018-06-21T21:34:43.970Z,21.30
2018-06-21T21:37:11.330Z,21.30
2018-06-21T21:39:38.533Z,21.30
2018-06-21T21:42:05.742Z,21.30
2018-06-21T21:44:33.174Z,21.30
2018-06-21T21:47:00.695Z,21.30
2018-06-21T21:54:22.389Z,21.30
2018-06-21T21:59:17.138Z,21.30
2018-06-21T22:01:44.355Z,21.30
2018-06-21T22:04:11.590Z,21.30
2018-06-21T22:09:07.491Z,21.30
2018-06-21T22:11:34.993Z,21.30
2018-06-21T22:14:05.026Z,21.30
2018-06-21T22:19:00.961Z,21.30
2018-06-21T22:21:28.146Z,21.30
2018-06-21T22:23:55.327Z,21.30
2018-06-21T22:26:22.596Z,21.30
2018-06-21T22:28:49.989Z,21.30
2018-06-21T22:31:17.189Z,21.30
2018-06-21T22:33:44.382Z,21.30
2018-06-21T22:36:12.609Z,21.20
2018-06-21T22:43:34.590Z,21.20
2018-06-21T22:46:01.808Z,21.20
2018-06-21T22:48:28.991Z,21.20
2018-06-21T22:50:56.657Z,21.20
2018-06-21T22:53:23.924Z,21.20
2018-06-21T22:58:18.747Z,21.10
2018-06-21T23:00:45.970Z,21.10
2018-06-21T23:03:13.166Z,21.10
2018-06-21T23:05:40.397Z,21.00
2018-06-21T23:08:07.659Z,21.00
2018-06-21T23:10:35.850Z,21.00
2018-06-21T23:15:30.570Z,21.00
2018-06-21T23:20:25.099Z,21.00
2018-06-21T23:22:52.317Z,21.00
2018-06-21T23:25:19.520Z,21.00
2018-06-21T23:27:47.094Z,20.90
2018-06-21T23:30:14.317Z,20.90
2018-06-21T23:32:41.578Z,20.90
2018-06-21T23:35:09.002Z,20.90
2018-06-21T23:37:36.214Z,20.90
2018-06-21T23:40:03.780Z,20.90
2018-06-21T23:42:30.987Z,20.90
2018-06-21T23:44:58.176Z,20.90
2018-06-21T23:49:52.707Z,20.80
2018-06-21T23:52:19.915Z,20.80
2018-06-21T23:54:47.490Z,20.90
2018-06-21T23:57:14.662Z,20.90
